Aérodrome :
LOGIN :

S'inscrire | Disclaimer

   EN    FR    IT 

 










Légende :    VFR   VFR Marginal   IFR   IFR Intensif   IFR Très Intensif
Visi : 
Plafond : 
>= 8 km
>= 3000ft
5 à 8 km
1000 à 3000 ft
1500m à 5 km
500 à 1000 ft
800 à 1500m
200 à 500 ft
< 800m
< 200 ft
Symboles :   Orages  Brouillard  Fortes neiges  Fortes précipitations  Vent > 20 kt
SIGMETs :   Divers  Orages  Givrage  Turbulence  Onde Orograph.  Cendres Volcan.






- Altitude de l'aérodrome : 82 ft
- Code IATA : QIE


LFMI - Istres

DERNIER METAR :
  • 200130Z AUTO 29010KT CAVOK 08/03 Q1014 BECMG 35020G30KT

METARs EXPIRÉS :
  • 200100Z AUTO 30009KT CAVOK 09/03 Q1014 NOSIG
  • 200030Z AUTO 29007KT CAVOK 08/04 Q1015 NOSIG
  • 200000Z AUTO 30006KT CAVOK 08/04 Q1015 NOSIG
  • 192330Z AUTO 30007KT CAVOK 09/05 Q1015 NOSIG
  • 192300Z AUTO 31007KT CAVOK 09/05 Q1015 NOSIG
  • 192230Z AUTO 32006KT 9999 NCD 09/06 Q1015
  • 192200Z AUTO 32007KT CAVOK 09/07 Q1015 NOSIG
  • 192130Z AUTO 31005KT CAVOK 09/07 Q1015 NOSIG
  • 192100Z AUTO 31005KT CAVOK 10/07 Q1015 NOSIG

TAF AMD TAF LFMI
Valide du 20 à 00h jusqu'au 20 à 21h UTC


200024Z 2000/2021 32010KT CAVOK TX16/2015Z TN07/2003Z
BECMG 2003/2005 35020G30KT
BECMG 2005/2007 35025G40KT



MET'MAP, la Météo Aéronautique d'un coup d'oeil ! - Copyright ORBIFLY Décembre 2007 - Disclaimer

ORBIFLY MET'MAP TEAM :

Programmation & Développement : Alexandra Zaïnal
Sur une idée originale de : Baudouin d'Aumeries
Soutien technique & logistique : Manuel Goepfert
Assistance : Marc-Olivier Méhu




SOURCES & CREDITS :

   NOAA